Time,TemperatureF,DewpointF,PressureIn,WindDirection,WindDirectionDegrees,WindSpeedMPH,WindSpeedGustMPH,Humidity,HourlyPrecipIn,Conditions,Clouds,dailyrainin,SolarRadiationWatts/m^2,SoftwareType,DateUTC
2013-04-21 00:03:00,50.0,29.5,29.75,ESE,107,5.0,9.0,45,0.00,,,0.02,0.0,meteohub,2013-04-21 05:03:00,
2013-04-21 00:08:00,49.6,30.2,29.76,East,100,9.0,9.0,47,0.00,,,0.00,0.0,meteohub,2013-04-21 05:08:00,
2013-04-21 00:13:00,49.8,29.8,29.76,ESE,113,3.0,10.0,46,0.00,,,0.00,0.0,meteohub,2013-04-21 05:13:00,
2013-04-21 00:18:00,49.8,30.9,29.76,ESE,111,5.0,10.0,48,0.00,,,0.00,0.0,meteohub,2013-04-21 05:18:00,
2013-04-21 00:23:00,50.2,31.3,29.76,ESE,111,7.0,10.0,48,0.00,,,0.00,0.0,meteohub,2013-04-21 05:23:00,
2013-04-21 00:28:00,50.5,31.1,29.77,SE,124,6.0,9.0,47,0.00,,,0.00,0.0,meteohub,2013-04-21 05:28:00,
2013-04-21 00:33:00,50.4,30.9,29.77,ESE,119,8.0,11.0,47,0.00,,,0.00,0.0,meteohub,2013-04-21 05:33:00,
2013-04-21 00:38:00,50.5,31.1,29.76,SE,126,8.0,11.0,47,0.00,,,0.00,0.0,meteohub,2013-04-21 05:38:00,
2013-04-21 00:43:00,50.0,30.6,29.76,SE,136,7.0,10.0,47,0.00,,,0.00,0.0,meteohub,2013-04-21 05:43:00,
2013-04-21 00:48:00,50.4,30.4,29.76,SE,132,9.0,12.0,46,0.00,,,0.00,0.0,meteohub,2013-04-21 05:48:00,
2013-04-21 00:53:00,51.1,30.6,29.77,SE,133,7.0,12.0,45,0.00,,,0.00,0.0,meteohub,2013-04-21 05:53:00,
2013-04-21 00:58:00,51.3,30.6,29.77,SE,125,8.0,13.0,45,0.00,,,0.00,0.0,meteohub,2013-04-21 05:58:00,
2013-04-21 01:03:00,50.7,30.2,29.77,SE,127,9.0,13.0,45,0.00,,,0.00,0.0,meteohub,2013-04-21 06:03:00,
2013-04-21 01:08:00,50.4,29.8,29.77,SE,139,8.0,13.0,45,0.00,,,0.00,0.0,meteohub,2013-04-21 06:08:00,
2013-04-21 01:13:00,49.8,29.3,29.77,SE,141,8.0,13.0,45,0.00,,,0.00,0.0,meteohub,2013-04-21 06:13:00,
2013-04-21 01:19:00,49.8,29.3,29.77,SE,144,10.0,13.0,45,0.00,,,0.00,0.0,meteohub,2013-04-21 06:19:00,
2013-04-21 01:24:00,49.8,29.3,29.77,SE,136,8.0,14.0,45,0.00,,,0.00,0.0,meteohub,2013-04-21 06:24:00,
2013-04-21 01:29:00,49.3,29.3,29.77,SE,144,8.0,14.0,46,0.00,,,0.00,0.0,meteohub,2013-04-21 06:29:00,
2013-04-21 01:34:00,48.6,28.8,29.77,SSE,147,8.0,13.0,46,0.00,,,0.00,0.0,meteohub,2013-04-21 06:34:00,
2013-04-21 01:39:00,48.6,28.8,29.77,SE,144,8.0,11.0,46,0.00,,,0.00,0.0,meteohub,2013-04-21 06:39:00,
2013-04-21 01:44:00,48.4,28.6,29.77,SSE,149,8.0,11.0,46,0.00,,,0.00,0.0,meteohub,2013-04-21 06:44:00,
2013-04-21 01:49:00,48.6,28.2,29.77,SSE,148,9.0,12.0,45,0.00,,,0.00,0.0,meteohub,2013-04-21 06:49:00,
2013-04-21 01:54:00,48.9,28.6,29.77,SE,141,9.0,13.0,45,0.00,,,0.00,0.0,meteohub,2013-04-21 06:54:00,
2013-04-21 01:59:00,48.4,28.6,29.77,SE,136,6.0,13.0,46,0.00,,,0.00,0.0,meteohub,2013-04-21 06:59:00,
2013-04-21 02:04:00,47.7,28.4,29.78,SE,142,4.0,12.0,47,0.00,,,0.00,0.0,meteohub,2013-04-21 07:04:00,
2013-04-21 02:09:00,46.9,28.2,29.78,SSE,155,7.0,12.0,48,0.00,,,0.00,0.0,meteohub,2013-04-21 07:09:00,
2013-04-21 02:14:00,46.9,28.2,29.78,SSE,162,6.0,10.0,48,0.00,,,0.00,0.0,meteohub,2013-04-21 07:14:00,
2013-04-21 02:19:00,47.1,28.4,29.78,SSE,163,7.0,8.0,48,0.00,,,0.00,0.0,meteohub,2013-04-21 07:19:00,
2013-04-21 02:24:00,46.9,28.2,29.78,SSE,157,6.0,8.0,48,0.00,,,0.00,0.0,meteohub,2013-04-21 07:24:00,
2013-04-21 02:29:00,46.6,28.4,29.78,SSE,155,7.0,8.0,49,0.00,,,0.00,0.0,meteohub,2013-04-21 07:29:00,
2013-04-21 02:34:00,46.6,27.9,29.78,SSE,159,5.0,8.0,48,0.00,,,0.00,0.0,meteohub,2013-04-21 07:34:00,
2013-04-21 02:39:00,46.6,27.9,29.78,SSE,163,5.0,8.0,48,0.00,,,0.00,0.0,meteohub,2013-04-21 07:39:00,
2013-04-21 02:44:00,46.6,28.4,29.78,SSE,163,5.0,8.0,49,0.00,,,0.00,0.0,meteohub,2013-04-21 07:44:00,
2013-04-21 02:49:00,46.8,28.0,29.78,SSE,159,6.0,8.0,48,0.00,,,0.00,0.0,meteohub,2013-04-21 07:49:00,
2013-04-21 02:54:00,46.8,28.0,29.78,SSE,153,6.0,7.0,48,0.00,,,0.00,0.0,meteohub,2013-04-21 07:54:00,
2013-04-21 02:59:00,46.8,28.0,29.78,SSE,153,3.0,7.0,48,0.00,,,0.00,0.0,meteohub,2013-04-21 07:59:00,
2013-04-21 03:04:00,46.6,28.4,29.78,SSE,153,6.0,7.0,49,0.00,,,0.00,0.0,meteohub,2013-04-21 08:04:00,
2013-04-21 03:09:00,46.2,27.7,29.78,SSE,153,6.0,7.0,48,0.00,,,0.00,0.0,meteohub,2013-04-21 08:09:00,
2013-04-21 03:14:00,46.0,27.9,29.78,SSE,153,5.0,7.0,49,0.00,,,0.00,0.0,meteohub,2013-04-21 08:14:00,
2013-04-21 03:19:00,45.7,27.7,29.78,SSE,153,5.0,7.0,49,0.00,,,0.00,0.0,meteohub,2013-04-21 08:19:00,
2013-04-21 03:24:00,45.1,27.7,29.78,SSE,159,5.0,7.0,50,0.00,,,0.00,0.0,meteohub,2013-04-21 08:24:00,
2013-04-21 03:29:00,45.0,27.5,29.78,SSE,161,6.0,6.0,50,0.00,,,0.00,0.0,meteohub,2013-04-21 08:29:00,
2013-04-21 03:34:00,44.8,27.3,29.78,SSE,162,4.0,7.0,50,0.00,,,0.00,0.0,meteohub,2013-04-21 08:34:00,
2013-04-21 03:39:00,44.4,27.5,29.78,SSE,165,4.0,7.0,51,0.00,,,0.00,0.0,meteohub,2013-04-21 08:39:00,
2013-04-21 03:44:00,44.1,27.1,29.78,SSE,165,4.0,7.0,51,0.00,,,0.00,0.0,meteohub,2013-04-21 08:44:00,
2013-04-21 03:49:00,43.7,27.1,29.78,SSE,167,4.0,7.0,52,0.00,,,0.00,0.0,meteohub,2013-04-21 08:49:00,
2013-04-21 03:54:00,43.9,27.3,29.78,SSE,167,3.0,5.0,52,0.00,,,0.00,0.0,meteohub,2013-04-21 08:54:00,
2013-04-21 03:59:00,43.7,27.1,29.78,SSE,167,3.0,5.0,52,0.00,,,0.00,0.0,meteohub,2013-04-21 08:59:00,
2013-04-21 04:04:00,43.3,27.0,29.78,SSE,167,3.0,5.0,52,0.00,,,0.00,0.0,meteohub,2013-04-21 09:04:00,
2013-04-21 04:09:00,43.0,27.0,29.78,SSW,200,5.0,5.0,53,0.00,,,0.00,0.0,meteohub,2013-04-21 09:09:00,
2013-04-21 04:14:00,42.3,26.4,29.79,SSW,211,5.0,7.0,53,0.00,,,0.00,0.0,meteohub,2013-04-21 09:14:00,
2013-04-21 04:19:00,39.7,25.7,29.79,SW,215,5.0,7.0,57,0.00,,,0.00,0.0,meteohub,2013-04-21 09:19:00,
2013-04-21 04:24:00,38.7,26.4,29.79,SW,223,7.0,7.0,61,0.00,,,0.00,0.0,meteohub,2013-04-21 09:24:00,
2013-04-21 04:29:00,37.8,25.9,29.80,SW,229,8.0,8.0,62,0.00,,,0.00,0.0,meteohub,2013-04-21 09:29:00,
2013-04-21 04:34:00,37.9,26.4,29.80,WSW,238,7.0,9.0,63,0.00,,,0.00,0.0,meteohub,2013-04-21 09:34:00,
2013-04-21 04:39:00,38.5,27.0,29.80,WSW,245,7.0,9.0,63,0.00,,,0.00,0.0,meteohub,2013-04-21 09:39:00,
2013-04-21 04:44:00,38.1,27.0,29.80,WSW,240,5.0,9.0,64,0.00,,,0.00,0.0,meteohub,2013-04-21 09:44:00,
2013-04-21 04:49:00,37.8,27.1,29.80,WSW,242,7.0,9.0,65,0.00,,,0.00,0.0,meteohub,2013-04-21 09:49:00,
2013-04-21 04:54:00,37.2,27.0,29.80,WSW,242,7.0,8.0,66,0.00,,,0.00,0.0,meteohub,2013-04-21 09:54:00,
2013-04-21 04:59:00,37.0,27.1,29.80,SW,236,7.0,8.0,67,0.00,,,0.00,0.0,meteohub,2013-04-21 09:59:00,
2013-04-21 05:04:00,36.9,27.0,29.80,SW,231,6.0,8.0,67,0.00,,,0.00,0.0,meteohub,2013-04-21 10:04:00,
2013-04-21 05:09:00,36.1,26.2,29.81,WSW,244,5.0,8.0,67,0.00,,,0.00,0.0,meteohub,2013-04-21 10:09:00,
2013-04-21 05:14:00,35.6,26.4,29.81,WSW,257,5.0,8.0,69,0.00,,,0.00,0.0,meteohub,2013-04-21 10:14:00,
2013-04-21 05:19:00,35.8,26.6,29.81,West,267,4.0,7.0,69,0.00,,,0.00,0.0,meteohub,2013-04-21 10:19:00,
2013-04-21 05:24:00,35.2,25.3,29.81,WSW,255,3.0,6.0,67,0.00,,,0.00,0.0,meteohub,2013-04-21 10:24:00,
2013-04-21 05:29:00,34.5,25.0,29.81,WSW,251,4.0,6.0,68,0.00,,,0.00,0.0,meteohub,2013-04-21 10:29:00,
2013-04-21 05:34:00,34.2,24.6,29.81,West,260,3.0,5.0,68,0.00,,,0.00,0.0,meteohub,2013-04-21 10:34:00,
2013-04-21 05:39:00,34.2,25.0,29.81,WSW,254,4.0,4.0,69,0.00,,,0.00,0.0,meteohub,2013-04-21 10:39:00,
2013-04-21 05:45:00,34.2,25.3,29.81,West,261,3.0,4.0,70,0.00,,,0.00,0.0,meteohub,2013-04-21 10:45:00,
2013-04-21 05:50:00,33.6,24.6,29.81,West,272,5.0,5.0,69,0.00,,,0.00,0.0,meteohub,2013-04-21 10:50:00,
2013-04-21 05:55:00,33.3,24.6,29.81,West,273,5.0,5.0,70,0.00,,,0.00,0.0,meteohub,2013-04-21 10:55:00,
2013-04-21 06:00:00,33.8,25.0,29.82,WNW,287,1.0,6.0,70,0.00,,,0.00,0.0,meteohub,2013-04-21 11:00:00,
2013-04-21 06:05:00,33.3,24.6,29.82,NNE,15,3.0,7.0,70,0.00,,,0.00,0.0,meteohub,2013-04-21 11:05:00,
2013-04-21 06:10:00,32.9,24.8,29.82,NNE,15,2.0,7.0,72,0.00,,,0.00,0.0,meteohub,2013-04-21 11:10:00,
2013-04-21 06:15:00,33.1,25.0,29.82,North,10,1.0,6.0,72,0.00,,,0.00,0.0,meteohub,2013-04-21 11:15:00,
2013-04-21 06:20:00,33.3,24.8,29.82,North,355,0.0,6.0,71,0.00,,,0.00,0.0,meteohub,2013-04-21 11:20:00,
2013-04-21 06:25:00,32.7,24.4,29.83,North,0,0.0,3.0,71,0.00,,,0.00,0.0,meteohub,2013-04-21 11:25:00,
2013-04-21 06:30:00,32.4,25.0,29.83,NNE,19,0.0,3.0,74,0.00,,,0.00,0.0,meteohub,2013-04-21 11:30:00,
2013-04-21 06:35:00,32.4,25.3,29.83,NNE,19,0.0,5.0,75,0.00,,,0.00,0.0,meteohub,2013-04-21 11:35:00,
2013-04-21 06:40:00,32.4,25.0,29.83,NNE,19,1.0,5.0,74,0.00,,,0.00,0.0,meteohub,2013-04-21 11:40:00,
2013-04-21 06:45:00,32.5,25.2,29.83,NNE,19,2.0,5.0,74,0.00,,,0.00,0.0,meteohub,2013-04-21 11:45:00,
2013-04-21 06:50:00,32.5,24.8,29.83,NNE,19,3.0,4.0,73,0.00,,,0.00,0.0,meteohub,2013-04-21 11:50:00,
2013-04-21 06:55:00,32.5,25.2,29.83,NNE,19,2.0,3.0,74,0.00,,,0.00,0.0,meteohub,2013-04-21 11:55:00,
2013-04-21 07:00:00,32.9,25.2,29.83,NNE,19,4.0,4.0,73,0.00,,,0.00,0.0,meteohub,2013-04-21 12:00:00,
2013-04-21 07:05:00,32.2,24.3,29.83,West,266,4.0,4.0,72,0.00,,,0.00,0.0,meteohub,2013-04-21 12:05:00,
2013-04-21 07:10:00,31.6,24.6,29.83,WSW,258,6.0,6.0,75,0.00,,,0.00,7.0,meteohub,2013-04-21 12:10:00,
2013-04-21 07:15:00,31.6,24.6,29.84,WSW,244,5.0,7.0,75,0.00,,,0.00,11.0,meteohub,2013-04-21 12:15:00,
2013-04-21 07:20:00,31.6,25.0,29.85,SW,229,4.0,7.0,76,0.00,,,0.00,14.0,meteohub,2013-04-21 12:20:00,
2013-04-21 07:25:00,31.8,25.2,29.85,WSW,246,6.0,7.0,76,0.00,,,0.00,21.0,meteohub,2013-04-21 12:25:00,
2013-04-21 07:30:00,32.4,25.9,29.85,WSW,257,6.0,7.0,77,0.00,,,0.00,30.0,meteohub,2013-04-21 12:30:00,
2013-04-21 07:35:00,32.7,26.1,29.85,WSW,257,8.0,8.0,76,0.00,,,0.00,40.0,meteohub,2013-04-21 12:35:00,
2013-04-21 07:40:00,33.4,26.4,29.86,West,260,6.0,7.0,75,0.00,,,0.00,51.0,meteohub,2013-04-21 12:40:00,
2013-04-21 07:45:00,34.3,26.6,29.86,West,259,6.0,8.0,73,0.00,,,0.00,67.0,meteohub,2013-04-21 12:45:00,
2013-04-21 07:50:00,35.1,27.0,29.86,West,264,6.0,8.0,72,0.00,,,0.00,84.0,meteohub,2013-04-21 12:50:00,
2013-04-21 07:55:00,36.1,27.7,29.86,West,269,6.0,8.0,71,0.00,,,0.00,102.0,meteohub,2013-04-21 12:55:00,
2013-04-21 08:00:00,37.4,28.2,29.86,West,273,6.0,7.0,69,0.00,,,0.00,120.0,meteohub,2013-04-21 13:00:00,
2013-04-21 08:05:00,38.7,28.6,29.86,West,281,6.0,8.0,67,0.00,,,0.00,141.0,meteohub,2013-04-21 13:05:00,
2013-04-21 08:10:00,39.4,28.6,29.86,West,280,5.0,8.0,65,0.00,,,0.00,156.0,meteohub,2013-04-21 13:10:00,
2013-04-21 08:15:00,40.1,28.9,29.86,West,267,7.0,8.0,64,0.00,,,0.00,179.0,meteohub,2013-04-21 13:15:00,
2013-04-21 08:20:00,40.6,29.1,29.86,West,271,6.0,8.0,63,0.00,,,0.00,199.0,meteohub,2013-04-21 13:20:00,
2013-04-21 08:25:00,41.4,29.3,29.86,West,267,6.0,8.0,62,0.00,,,0.00,218.0,meteohub,2013-04-21 13:25:00,
2013-04-21 08:30:00,41.9,29.5,29.86,West,267,4.0,8.0,61,0.00,,,0.00,236.0,meteohub,2013-04-21 13:30:00,
2013-04-21 08:35:00,42.6,30.2,29.87,West,262,6.0,7.0,61,0.00,,,0.00,253.0,meteohub,2013-04-21 13:35:00,
2013-04-21 08:40:00,43.5,30.2,29.87,West,265,2.0,7.0,59,0.00,,,0.00,272.0,meteohub,2013-04-21 13:40:00,
2013-04-21 08:45:00,44.2,30.4,29.87,West,274,2.0,7.0,58,0.00,,,0.00,292.0,meteohub,2013-04-21 13:45:00,
2013-04-21 08:50:00,45.1,30.7,29.87,WNW,287,2.0,6.0,57,0.00,,,0.00,311.0,meteohub,2013-04-21 13:50:00,
2013-04-21 08:55:00,45.9,30.6,29.87,WNW,287,3.0,6.0,55,0.00,,,0.00,325.0,meteohub,2013-04-21 13:55:00,
2013-04-21 09:00:00,46.2,30.9,29.87,West,264,3.0,5.0,55,0.00,,,0.00,345.0,meteohub,2013-04-21 14:00:00,
2013-04-21 09:05:00,46.9,31.6,29.87,WSW,258,3.0,5.0,55,0.00,,,0.00,362.0,meteohub,2013-04-21 14:05:00,
2013-04-21 09:10:00,47.7,31.8,29.87,West,269,1.0,5.0,54,0.00,,,0.00,381.0,meteohub,2013-04-21 14:10:00,
2013-04-21 09:15:00,48.6,32.2,29.88,West,269,3.0,5.0,53,0.00,,,0.00,401.0,meteohub,2013-04-21 14:15:00,
2013-04-21 09:20:00,49.3,32.0,29.88,West,278,4.0,4.0,51,0.00,,,0.00,418.0,meteohub,2013-04-21 14:20:00,
2013-04-21 09:25:00,50.0,32.2,29.88,WNW,288,3.0,5.0,50,0.00,,,0.00,436.0,meteohub,2013-04-21 14:25:00,
2013-04-21 09:30:00,50.7,31.8,29.88,WNW,288,1.0,5.0,48,0.00,,,0.00,452.0,meteohub,2013-04-21 14:30:00,
2013-04-21 09:35:00,51.6,32.0,29.88,WNW,289,4.0,5.0,47,0.00,,,0.00,473.0,meteohub,2013-04-21 14:35:00,
2013-04-21 09:40:00,52.2,32.5,29.88,WNW,289,2.0,4.0,47,0.00,,,0.00,489.0,meteohub,2013-04-21 14:40:00,
2013-04-21 09:45:00,52.9,33.3,29.88,WNW,292,2.0,4.0,47,0.00,,,0.00,504.0,meteohub,2013-04-21 14:45:00,
2013-04-21 09:50:00,53.4,33.6,29.88,WNW,293,1.0,4.0,47,0.00,,,0.00,524.0,meteohub,2013-04-21 14:50:00,
2013-04-21 09:55:00,54.1,33.3,29.88,WNW,293,0.0,4.0,45,0.00,,,0.00,541.0,meteohub,2013-04-21 14:55:00,
2013-04-21 10:00:00,55.0,33.4,29.88,WNW,294,1.0,4.0,44,0.00,,,0.00,557.0,meteohub,2013-04-21 15:00:00,
2013-04-21 10:06:00,55.6,33.4,29.88,WNW,294,0.0,4.0,43,0.00,,,0.00,575.0,meteohub,2013-04-21 15:06:00,
2013-04-21 10:11:00,55.8,33.1,29.88,WNW,294,1.0,3.0,42,0.00,,,0.00,594.0,meteohub,2013-04-21 15:11:00,
2013-04-21 10:16:00,55.9,33.3,29.88,WNW,294,0.0,3.0,42,0.00,,,0.00,606.0,meteohub,2013-04-21 15:16:00,
2013-04-21 10:21:00,56.5,33.6,29.88,WNW,294,0.0,3.0,42,0.00,,,0.00,624.0,meteohub,2013-04-21 15:21:00,
2013-04-21 10:26:00,57.4,34.5,29.88,WNW,292,3.0,3.0,42,0.00,,,0.00,638.0,meteohub,2013-04-21 15:26:00,
2013-04-21 10:31:00,57.9,33.8,29.88,WNW,291,0.0,3.0,40,0.00,,,0.00,652.0,meteohub,2013-04-21 15:31:00,
2013-04-21 10:36:00,58.8,34.5,29.88,WNW,290,0.0,3.0,40,0.00,,,0.00,670.0,meteohub,2013-04-21 15:36:00,
2013-04-21 10:41:00,59.5,34.0,29.88,West,263,3.0,3.0,38,0.00,,,0.00,684.0,meteohub,2013-04-21 15:41:00,
2013-04-21 10:46:00,59.7,33.4,29.88,West,263,0.0,4.0,37,0.00,,,0.00,700.0,meteohub,2013-04-21 15:46:00,
2013-04-21 10:51:00,60.3,33.3,29.89,West,263,0.0,4.0,36,0.00,,,0.00,714.0,meteohub,2013-04-21 15:51:00,
2013-04-21 10:56:00,60.4,33.4,29.89,West,263,0.0,4.0,36,0.00,,,0.00,729.0,meteohub,2013-04-21 15:56:00,
2013-04-21 11:01:00,61.0,34.5,29.89,NNW,338,4.0,4.0,37,0.00,,,0.00,744.0,meteohub,2013-04-21 16:01:00,
2013-04-21 11:06:00,61.2,33.3,29.89,North,355,0.0,5.0,35,0.00,,,0.00,758.0,meteohub,2013-04-21 16:06:00,
2013-04-21 11:11:00,61.5,35.1,29.89,North,355,0.0,5.0,37,0.00,,,0.00,768.0,meteohub,2013-04-21 16:11:00,
2013-04-21 11:16:00,62.1,34.2,29.88,North,355,0.0,5.0,35,0.00,,,0.00,782.0,meteohub,2013-04-21 16:16:00,
2013-04-21 11:21:00,62.4,34.3,29.88,North,5,0.0,4.0,35,0.00,,,0.00,793.0,meteohub,2013-04-21 16:21:00,
2013-04-21 11:26:00,63.0,34.2,29.88,North,5,0.0,4.0,34,0.00,,,0.00,805.0,meteohub,2013-04-21 16:26:00,
2013-04-21 11:32:00,63.5,34.7,29.88,NNE,16,2.0,4.0,34,0.00,,,0.00,814.0,meteohub,2013-04-21 16:32:00,
2013-04-21 11:37:00,63.7,34.7,29.88,NE,45,4.0,6.0,34,0.00,,,0.00,824.0,meteohub,2013-04-21 16:37:00,
2013-04-21 11:42:00,63.9,34.2,29.88,NE,47,4.0,6.0,33,0.00,,,0.00,835.0,meteohub,2013-04-21 16:42:00,
2013-04-21 11:47:00,64.0,33.6,29.88,NE,47,2.0,6.0,32,0.00,,,0.00,844.0,meteohub,2013-04-21 16:47:00,
2013-04-21 11:52:00,64.6,34.0,29.88,NE,45,3.0,6.0,32,0.00,,,0.00,858.0,meteohub,2013-04-21 16:52:00,
2013-04-21 11:57:00,65.1,32.9,29.88,NE,44,2.0,6.0,30,0.00,,,0.00,865.0,meteohub,2013-04-21 16:57:00,
2013-04-21 12:02:00,64.9,32.7,29.88,NE,46,3.0,5.0,30,0.00,,,0.00,872.0,meteohub,2013-04-21 17:02:00,
2013-04-21 12:07:00,64.8,31.8,29.87,NE,42,5.0,5.0,29,0.00,,,0.00,879.0,meteohub,2013-04-21 17:07:00,
2013-04-21 12:12:00,64.6,30.7,29.87,NE,42,1.0,5.0,28,0.00,,,0.00,886.0,meteohub,2013-04-21 17:12:00,
2013-04-21 12:17:00,65.7,32.5,29.87,ENE,78,3.0,5.0,29,0.00,,,0.00,896.0,meteohub,2013-04-21 17:17:00,
2013-04-21 12:22:00,66.4,33.1,29.87,ENE,78,5.0,8.0,29,0.00,,,0.00,907.0,meteohub,2013-04-21 17:22:00,
2013-04-21 12:27:00,66.6,31.5,29.87,ENE,70,2.0,8.0,27,0.00,,,0.00,912.0,meteohub,2013-04-21 17:27:00,
2013-04-21 12:32:00,66.7,30.7,29.86,ENE,70,3.0,8.0,26,0.00,,,0.00,919.0,meteohub,2013-04-21 17:32:00,
2013-04-21 12:37:00,66.7,31.6,29.87,ENE,76,3.0,8.0,27,0.00,,,0.00,926.0,meteohub,2013-04-21 17:37:00,
2013-04-21 12:42:00,67.1,29.1,29.86,East,82,3.0,7.0,24,0.00,,,0.00,932.0,meteohub,2013-04-21 17:42:00,
2013-04-21 12:47:00,67.8,29.7,29.86,East,90,2.0,8.0,24,0.00,,,0.00,933.0,meteohub,2013-04-21 17:47:00,
2013-04-21 12:52:00,68.0,28.8,29.86,East,90,0.0,8.0,23,0.00,,,0.00,940.0,meteohub,2013-04-21 17:52:00,
2013-04-21 12:57:00,68.4,29.1,29.86,East,95,8.0,8.0,23,0.00,,,0.00,944.0,meteohub,2013-04-21 17:57:00,
2013-04-21 13:02:00,68.2,27.9,29.86,SE,125,5.0,11.0,22,0.00,,,0.00,951.0,meteohub,2013-04-21 18:02:00,
2013-04-21 13:07:00,68.5,30.4,29.86,ENE,59,9.0,11.0,24,0.00,,,0.00,956.0,meteohub,2013-04-21 18:07:00,
2013-04-21 13:12:00,68.5,30.4,29.86,NE,38,3.0,11.0,24,0.00,,,0.00,846.0,meteohub,2013-04-21 18:12:00,
2013-04-21 13:17:00,68.7,28.4,29.86,ESE,105,0.0,9.0,22,0.00,,,0.00,960.0,meteohub,2013-04-21 18:17:00,
2013-04-21 13:22:00,68.7,28.4,29.86,East,96,3.0,10.0,22,0.00,,,0.00,962.0,meteohub,2013-04-21 18:22:00,
2013-04-21 13:27:00,68.5,29.3,29.85,East,101,5.0,10.0,23,0.00,,,0.00,967.0,meteohub,2013-04-21 18:27:00,
2013-04-21 13:32:00,68.7,28.4,29.85,East,95,3.0,9.0,22,0.00,,,0.00,970.0,meteohub,2013-04-21 18:32:00,
2013-04-21 13:37:00,70.0,29.3,29.84,South,180,2.0,10.0,22,0.00,,,0.00,970.0,meteohub,2013-04-21 18:37:00,
2013-04-21 13:42:00,70.3,29.7,29.84,ESE,105,7.0,10.0,22,0.00,,,0.00,967.0,meteohub,2013-04-21 18:42:00,
2013-04-21 13:47:00,69.8,29.3,29.83,SSE,150,9.0,10.0,22,0.00,,,0.00,969.0,meteohub,2013-04-21 18:47:00,
2013-04-21 13:52:00,70.0,28.2,29.83,SE,137,4.0,10.0,21,0.00,,,0.00,972.0,meteohub,2013-04-21 18:52:00,
2013-04-21 13:57:00,70.2,27.1,29.83,South,186,3.0,11.0,20,0.00,,,0.00,974.0,meteohub,2013-04-21 18:57:00,
2013-04-21 14:02:00,70.2,27.1,29.83,South,190,6.0,12.0,20,0.00,,,0.00,972.0,meteohub,2013-04-21 19:02:00,
2013-04-21 14:07:00,70.0,27.1,29.83,SSW,207,5.0,12.0,20,0.00,,,0.00,969.0,meteohub,2013-04-21 19:07:00,
2013-04-21 14:12:00,70.0,28.2,29.82,SSW,207,0.0,12.0,21,0.00,,,0.00,969.0,meteohub,2013-04-21 19:12:00,
2013-04-21 14:17:00,70.9,27.9,29.82,SSW,208,3.0,9.0,20,0.00,,,0.00,963.0,meteohub,2013-04-21 19:17:00,
2013-04-21 14:22:00,71.2,28.0,29.82,SSE,158,2.0,7.0,20,0.00,,,0.00,965.0,meteohub,2013-04-21 19:22:00,
2013-04-21 14:27:00,71.2,28.0,29.81,SSE,161,5.0,9.0,20,0.00,,,0.00,958.0,meteohub,2013-04-21 19:27:00,
2013-04-21 14:32:00,71.1,28.0,29.81,SSE,161,2.0,10.0,20,0.00,,,0.00,956.0,meteohub,2013-04-21 19:32:00,
2013-04-21 14:37:00,71.2,28.0,29.81,South,189,11.0,11.0,20,0.00,,,0.00,951.0,meteohub,2013-04-21 19:37:00,
2013-04-21 14:42:00,70.7,27.7,29.81,SSE,161,2.0,11.0,20,0.00,,,0.00,949.0,meteohub,2013-04-21 19:42:00,
2013-04-21 14:47:00,70.9,27.9,29.80,SE,131,8.0,11.0,20,0.00,,,0.00,944.0,meteohub,2013-04-21 19:47:00,
2013-04-21 14:52:00,71.1,28.0,29.80,ESE,117,5.0,11.0,20,0.00,,,0.00,942.0,meteohub,2013-04-21 19:52:00,
2013-04-21 14:57:00,71.1,29.1,29.80,SE,142,0.0,9.0,21,0.00,,,0.00,923.0,meteohub,2013-04-21 19:57:00,
2013-04-21 15:02:00,72.1,31.1,29.80,SSE,148,4.0,9.0,22,0.00,,,0.00,923.0,meteohub,2013-04-21 20:02:00,
2013-04-21 15:07:00,71.8,28.6,29.80,SE,142,3.0,18.0,20,0.00,,,0.00,919.0,meteohub,2013-04-21 20:07:00,
2013-04-21 15:13:00,71.4,28.2,29.80,East,88,6.0,18.0,20,0.00,,,0.00,919.0,meteohub,2013-04-21 20:13:00,
2013-04-21 15:18:00,71.2,29.3,29.79,East,82,2.0,18.0,21,0.00,,,0.00,926.0,meteohub,2013-04-21 20:18:00,
2013-04-21 15:23:00,71.8,28.6,29.78,East,88,5.0,11.0,20,0.00,,,0.00,923.0,meteohub,2013-04-21 20:23:00,
2013-04-21 15:28:00,72.3,28.9,29.78,SSW,200,8.0,10.0,20,0.00,,,0.00,895.0,meteohub,2013-04-21 20:28:00,
2013-04-21 15:33:00,72.7,28.0,29.78,SSW,203,7.0,10.0,19,0.00,,,0.00,881.0,meteohub,2013-04-21 20:33:00,
2013-04-21 15:38:00,72.1,27.7,29.78,South,187,3.0,14.0,19,0.00,,,0.00,870.0,meteohub,2013-04-21 20:38:00,
2013-04-21 15:43:00,72.3,30.2,29.78,SW,217,3.0,14.0,21,0.00,,,0.00,867.0,meteohub,2013-04-21 20:43:00,
2013-04-21 15:48:00,73.0,29.7,29.78,SSE,167,8.0,15.0,20,0.00,,,0.00,856.0,meteohub,2013-04-21 20:48:00,
2013-04-21 15:53:00,72.9,28.2,29.77,SSE,153,6.0,15.0,19,0.00,,,0.00,838.0,meteohub,2013-04-21 20:53:00,
2013-04-21 15:58:00,72.7,28.0,29.77,SSE,161,4.0,15.0,19,0.00,,,0.00,853.0,meteohub,2013-04-21 20:58:00,
2013-04-21 16:03:00,72.9,27.0,29.77,South,175,0.0,11.0,18,0.00,,,0.00,851.0,meteohub,2013-04-21 21:03:00,
2013-04-21 16:08:00,72.5,27.9,29.77,South,177,5.0,9.0,19,0.00,,,0.00,132.0,meteohub,2013-04-21 21:08:00,
2013-04-21 16:13:00,72.1,27.7,29.76,SSE,154,7.0,11.0,19,0.00,,,0.00,169.0,meteohub,2013-04-21 21:13:00,
2013-04-21 16:18:00,72.3,28.9,29.76,SW,220,12.0,12.0,20,0.00,,,0.00,856.0,meteohub,2013-04-21 21:18:00,
2013-04-21 16:23:00,72.9,28.2,29.76,WSW,248,0.0,12.0,19,0.00,,,0.00,830.0,meteohub,2013-04-21 21:23:00,
2013-04-21 16:29:00,73.8,27.7,29.76,SSW,213,5.0,12.0,18,0.00,,,0.00,807.0,meteohub,2013-04-21 21:29:00,
2013-04-21 16:34:00,73.9,27.7,29.76,SW,219,1.0,12.0,18,0.00,,,0.00,809.0,meteohub,2013-04-21 21:34:00,
2013-04-21 16:39:00,73.8,28.9,29.76,SE,145,1.0,10.0,19,0.00,,,0.00,796.0,meteohub,2013-04-21 21:39:00,
2013-04-21 16:44:00,73.8,28.9,29.75,SE,140,3.0,15.0,19,0.00,,,0.00,817.0,meteohub,2013-04-21 21:44:00,
2013-04-21 16:49:00,73.9,27.7,29.75,SSW,205,16.0,16.0,18,0.00,,,0.00,817.0,meteohub,2013-04-21 21:49:00,
2013-04-21 16:54:00,73.6,28.8,29.75,WSW,238,4.0,20.0,19,0.00,,,0.00,798.0,meteohub,2013-04-21 21:54:00,
2013-04-21 16:59:00,73.9,29.1,29.75,SE,136,15.0,20.0,19,0.00,,,0.00,773.0,meteohub,2013-04-21 21:59:00,
2013-04-21 17:04:00,73.9,27.7,29.75,SSE,166,7.0,20.0,18,0.00,,,0.00,780.0,meteohub,2013-04-21 22:04:00,
2013-04-21 17:09:00,74.1,27.9,29.75,SSW,201,12.0,16.0,18,0.00,,,0.00,765.0,meteohub,2013-04-21 22:09:00,
2013-04-21 17:15:00,73.8,27.7,29.75,South,180,6.0,16.0,18,0.00,,,0.00,216.0,meteohub,2013-04-21 22:15:00,
2013-04-21 17:20:00,72.9,28.2,29.75,SE,142,13.0,16.0,19,0.00,,,0.00,557.0,meteohub,2013-04-21 22:20:00,
2013-04-21 17:25:00,72.7,28.0,29.75,SSE,155,3.0,15.0,19,0.00,,,0.00,708.0,meteohub,2013-04-21 22:25:00,
2013-04-21 17:30:00,72.9,28.2,29.74,ESE,123,8.0,16.0,19,0.00,,,0.00,715.0,meteohub,2013-04-21 22:30:00,
2013-04-21 17:35:00,73.4,27.3,29.74,ESE,117,14.0,16.0,18,0.00,,,0.00,682.0,meteohub,2013-04-21 22:35:00,
2013-04-21 17:40:00,73.8,27.7,29.74,SE,146,10.0,13.0,18,0.00,,,0.00,605.0,meteohub,2013-04-21 22:40:00,
2013-04-21 17:45:00,73.4,27.3,29.74,South,190,10.0,14.0,18,0.00,,,0.00,183.0,meteohub,2013-04-21 22:45:00,
2013-04-21 17:50:00,72.7,26.8,29.74,SSE,164,4.0,14.0,18,0.00,,,0.00,128.0,meteohub,2013-04-21 22:50:00,
2013-04-21 17:55:00,72.1,27.7,29.74,SSW,196,11.0,14.0,19,0.00,,,0.00,123.0,meteohub,2013-04-21 22:55:00,
2013-04-21 18:00:00,72.1,27.7,29.74,South,171,9.0,14.0,19,0.00,,,0.00,163.0,meteohub,2013-04-21 23:00:00,
2013-04-21 18:05:00,72.9,28.2,29.74,South,186,9.0,14.0,19,0.00,,,0.00,541.0,meteohub,2013-04-21 23:05:00,
2013-04-21 18:10:00,72.9,28.2,29.74,South,188,13.0,16.0,19,0.00,,,0.00,207.0,meteohub,2013-04-21 23:10:00,
2013-04-21 18:15:00,72.9,28.2,29.74,SSE,163,13.0,16.0,19,0.00,,,0.00,322.0,meteohub,2013-04-21 23:15:00,
2013-04-21 18:20:00,72.3,27.7,29.74,SSE,162,6.0,16.0,19,0.00,,,0.00,153.0,meteohub,2013-04-21 23:20:00,
2013-04-21 18:26:00,72.3,27.7,29.74,SSE,147,8.0,15.0,19,0.00,,,0.00,209.0,meteohub,2013-04-21 23:26:00,
2013-04-21 18:31:00,72.1,27.7,29.74,SSE,163,8.0,14.0,19,0.00,,,0.00,283.0,meteohub,2013-04-21 23:31:00,
2013-04-21 18:36:00,72.0,27.5,29.74,SSE,150,9.0,14.0,19,0.00,,,0.00,144.0,meteohub,2013-04-21 23:36:00,
2013-04-21 18:41:00,71.6,27.1,29.74,SE,141,10.0,15.0,19,0.00,,,0.00,195.0,meteohub,2013-04-21 23:41:00,
2013-04-21 18:46:00,71.8,28.6,29.74,SE,134,13.0,16.0,20,0.00,,,0.00,248.0,meteohub,2013-04-21 23:46:00,
2013-04-21 18:51:00,71.4,28.2,29.74,SE,136,9.0,16.0,20,0.00,,,0.00,95.0,meteohub,2013-04-21 23:51:00,
2013-04-21 18:56:00,71.2,26.8,29.74,SSE,162,6.0,16.0,19,0.00,,,0.00,118.0,meteohub,2013-04-21 23:56:00,
2013-04-21 19:01:00,71.2,26.8,29.74,SSE,167,7.0,14.0,19,0.00,,,0.00,98.0,meteohub,2013-04-22 00:01:00,
2013-04-21 19:06:00,71.2,26.8,29.74,SE,146,13.0,13.0,19,0.00,,,0.00,232.0,meteohub,2013-04-22 00:06:00,
2013-04-21 19:11:00,71.8,28.6,29.74,SSE,149,9.0,15.0,20,0.00,,,0.00,248.0,meteohub,2013-04-22 00:11:00,
2013-04-21 19:16:00,72.0,29.8,29.73,SE,126,13.0,15.0,21,0.00,,,0.00,195.0,meteohub,2013-04-22 00:16:00,
2013-04-21 19:21:00,71.1,29.1,29.73,SE,129,15.0,17.0,21,0.00,,,0.00,153.0,meteohub,2013-04-22 00:21:00,
2013-04-21 19:26:00,70.9,30.2,29.73,ESE,112,15.0,21.0,22,0.00,,,0.00,144.0,meteohub,2013-04-22 00:26:00,
2013-04-21 19:31:00,70.5,30.9,29.73,SE,136,18.0,21.0,23,0.00,,,0.00,125.0,meteohub,2013-04-22 00:31:00,
2013-04-21 19:36:00,70.2,30.6,29.73,ESE,123,16.0,21.0,23,0.00,,,0.00,104.0,meteohub,2013-04-22 00:36:00,
2013-04-21 19:41:00,69.8,32.4,29.73,SE,136,10.0,22.0,25,0.00,,,0.00,81.0,meteohub,2013-04-22 00:41:00,
2013-04-21 19:46:00,69.4,31.1,29.73,SE,142,19.0,22.0,24,0.00,,,0.00,49.0,meteohub,2013-04-22 00:46:00,
2013-04-21 19:51:00,69.1,31.8,29.73,ESE,121,16.0,24.0,25,0.00,,,0.00,39.0,meteohub,2013-04-22 00:51:00,
2013-04-21 19:56:00,68.4,32.2,29.73,SSE,149,15.0,24.0,26,0.00,,,0.00,19.0,meteohub,2013-04-22 00:56:00,
2013-04-21 20:01:00,67.8,32.5,29.73,SSE,148,17.0,24.0,27,0.00,,,0.00,16.0,meteohub,2013-04-22 01:01:00,
2013-04-21 20:07:00,67.5,33.3,29.73,SE,133,18.0,24.0,28,0.00,,,0.00,12.0,meteohub,2013-04-22 01:07:00,
2013-04-21 20:12:00,66.9,33.6,29.73,SE,140,18.0,25.0,29,0.00,,,0.00,9.0,meteohub,2013-04-22 01:12:00,
2013-04-21 20:17:00,66.4,34.0,29.73,SE,142,16.0,25.0,30,0.00,,,0.00,5.0,meteohub,2013-04-22 01:17:00,
2013-04-21 20:22:00,66.0,33.6,29.73,SE,144,15.0,23.0,30,0.00,,,0.00,0.0,meteohub,2013-04-22 01:22:00,
2013-04-21 20:27:00,65.7,34.2,29.73,SE,140,20.0,24.0,31,0.00,,,0.00,0.0,meteohub,2013-04-22 01:27:00,
2013-04-21 20:32:00,65.5,34.9,29.73,SE,142,18.0,24.0,32,0.00,,,0.00,0.0,meteohub,2013-04-22 01:32:00,
2013-04-21 20:37:00,64.9,34.3,29.73,SE,127,15.0,24.0,32,0.00,,,0.00,0.0,meteohub,2013-04-22 01:37:00,
2013-04-21 20:42:00,64.8,35.1,29.73,SE,139,16.0,24.0,33,0.00,,,0.00,0.0,meteohub,2013-04-22 01:42:00,
2013-04-21 20:47:00,64.2,34.5,29.73,SE,134,18.0,24.0,33,0.00,,,0.00,0.0,meteohub,2013-04-22 01:47:00,
2013-04-21 20:52:00,63.9,34.9,29.73,SE,136,15.0,23.0,34,0.00,,,0.00,0.0,meteohub,2013-04-22 01:52:00,
2013-04-21 20:57:00,63.5,34.7,29.74,SE,145,14.0,23.0,34,0.00,,,0.00,0.0,meteohub,2013-04-22 01:57:00,
2013-04-21 21:02:00,63.5,35.4,29.74,SE,134,18.0,21.0,35,0.00,,,0.00,0.0,meteohub,2013-04-22 02:02:00,
2013-04-21 21:07:00,63.1,35.1,29.74,SE,132,16.0,22.0,35,0.00,,,0.00,0.0,meteohub,2013-04-22 02:07:00,
2013-04-21 21:12:00,62.8,35.4,29.74,SE,141,10.0,22.0,36,0.00,,,0.00,0.0,meteohub,2013-04-22 02:12:00,
2013-04-21 21:17:00,62.2,34.9,29.74,SE,132,15.0,22.0,36,0.00,,,0.00,0.0,meteohub,2013-04-22 02:17:00,
2013-04-21 21:22:00,61.9,35.2,29.74,SE,136,12.0,20.0,37,0.00,,,0.00,0.0,meteohub,2013-04-22 02:22:00,
2013-04-21 21:27:00,61.5,35.6,29.74,SE,138,12.0,20.0,38,0.00,,,0.00,0.0,meteohub,2013-04-22 02:27:00,
2013-04-21 21:32:00,61.3,35.6,29.74,SE,144,11.0,20.0,38,0.00,,,0.00,0.0,meteohub,2013-04-22 02:32:00,
2013-04-21 21:37:00,61.3,35.6,29.74,SE,138,13.0,19.0,38,0.00,,,0.00,0.0,meteohub,2013-04-22 02:37:00,
2013-04-21 21:42:00,61.5,36.3,29.74,SE,141,19.0,19.0,39,0.00,,,0.00,0.0,meteohub,2013-04-22 02:42:00,
2013-04-21 21:47:00,61.3,36.1,29.74,SE,146,15.0,21.0,39,0.00,,,0.00,0.0,meteohub,2013-04-22 02:47:00,
2013-04-21 21:52:00,61.2,36.0,29.75,SE,145,15.0,21.0,39,0.00,,,0.00,0.0,meteohub,2013-04-22 02:52:00,
2013-04-21 21:57:00,61.0,35.8,29.75,SE,146,14.0,21.0,39,0.00,,,0.00,0.0,meteohub,2013-04-22 02:57:00,
2013-04-21 22:02:00,60.6,36.1,29.75,SE,132,13.0,21.0,40,0.00,,,0.00,0.0,meteohub,2013-04-22 03:02:00,
2013-04-21 22:07:00,60.3,36.5,29.75,SE,136,16.0,21.0,41,0.00,,,0.00,0.0,meteohub,2013-04-22 03:07:00,
2013-04-21 22:12:00,60.1,36.3,29.75,SE,138,13.0,20.0,41,0.00,,,0.00,0.0,meteohub,2013-04-22 03:12:00,
2013-04-21 22:17:00,59.7,36.5,29.75,SSE,149,15.0,21.0,42,0.00,,,0.00,0.0,meteohub,2013-04-22 03:17:00,
2013-04-21 22:22:00,59.5,37.0,29.75,SE,134,17.0,21.0,43,0.00,,,0.00,0.0,meteohub,2013-04-22 03:22:00,
2013-04-21 22:27:00,59.4,37.4,29.75,SE,138,14.0,20.0,44,0.00,,,0.00,0.0,meteohub,2013-04-22 03:27:00,
2013-04-21 22:32:00,59.2,37.9,29.75,ESE,122,13.0,20.0,45,0.00,,,0.00,0.0,meteohub,2013-04-22 03:32:00,
2013-04-21 22:37:00,58.8,37.6,29.75,SE,137,15.0,20.0,45,0.00,,,0.00,0.0,meteohub,2013-04-22 03:37:00,
2013-04-21 22:42:00,58.6,37.9,29.75,SE,132,14.0,20.0,46,0.00,,,0.00,0.0,meteohub,2013-04-22 03:42:00,
2013-04-21 22:47:00,58.1,37.9,29.75,SE,131,16.0,21.0,47,0.00,,,0.00,0.0,meteohub,2013-04-22 03:47:00,
2013-04-21 22:52:00,57.7,38.1,29.75,SE,146,17.0,21.0,48,0.00,,,0.00,0.0,meteohub,2013-04-22 03:52:00,
2013-04-21 22:57:00,57.7,38.1,29.75,SE,143,13.0,23.0,48,0.00,,,0.00,0.0,meteohub,2013-04-22 03:57:00,
2013-04-21 23:01:00,57.6,38.5,29.75,SE,139,20.0,23.0,49,0.00,,,0.00,0.0,meteohub,2013-04-22 04:01:00,
2013-04-21 23:02:00,57.6,38.5,29.75,SE,135,11.0,23.0,49,0.00,,,0.00,0.0,meteohub,2013-04-22 04:02:00,
2013-04-21 23:07:00,57.4,38.8,29.76,SE,137,17.0,23.0,50,0.00,,,0.00,0.0,meteohub,2013-04-22 04:07:00,
2013-04-21 23:13:00,57.0,39.0,29.76,SE,135,12.0,20.0,51,0.00,,,0.00,0.0,meteohub,2013-04-22 04:13:00,
2013-04-21 23:17:00,56.8,39.4,29.76,SE,140,15.0,20.0,52,0.00,,,0.00,0.0,meteohub,2013-04-22 04:17:00,
2013-04-21 23:22:00,56.7,39.7,29.76,SE,142,13.0,19.0,53,0.00,,,0.00,0.0,meteohub,2013-04-22 04:22:00,
2013-04-21 23:28:00,56.5,40.1,29.76,SE,134,11.0,16.0,54,0.00,,,0.00,0.0,meteohub,2013-04-22 04:28:00,
2013-04-21 23:33:00,56.5,40.5,29.76,SE,140,11.0,17.0,55,0.00,,,0.00,0.0,meteohub,2013-04-22 04:33:00,
2013-04-21 23:38:00,56.1,40.1,29.76,SE,144,10.0,17.0,55,0.00,,,0.00,0.0,meteohub,2013-04-22 04:38:00,
2013-04-21 23:43:00,55.9,40.5,29.76,SE,145,12.0,17.0,56,0.00,,,0.00,0.0,meteohub,2013-04-22 04:43:00,
2013-04-21 23:48:00,56.1,40.6,29.76,SSE,148,13.0,18.0,56,0.00,,,0.00,0.0,meteohub,2013-04-22 04:48:00,
2013-04-21 23:53:00,56.1,41.5,29.76,SSE,154,10.0,18.0,58,0.00,,,0.00,0.0,meteohub,2013-04-22 04:53:00,
2013-04-21 23:58:00,55.9,41.4,29.76,SSE,151,14.0,20.0,58,0.00,,,0.00,0.0,meteohub,2013-04-22 04:58:00,